createdAt,value
2019-01-19T00:02:12.988Z,29.30
2019-01-19T00:05:12.839Z,31.80
2019-01-19T00:07:52.937Z,26.33
2019-01-19T00:10:49.865Z,30.63
2019-01-19T00:13:27.860Z,27.50
2019-01-19T00:16:16.356Z,34.93
2019-01-19T00:19:09.062Z,31.87
2019-01-19T00:21:54.609Z,29.20
2019-01-19T00:24:32.014Z,28.73
2019-01-19T00:27:12.272Z,27.70
2019-01-19T00:30:00.472Z,19.63
2019-01-19T00:32:34.949Z,22.57
2019-01-19T00:35:33.684Z,22.67
2019-01-19T00:38:07.666Z,25.63
2019-01-19T00:41:09.256Z,28.60
2019-01-19T00:43:39.402Z,26.07
2019-01-19T00:46:22.830Z,25.60
2019-01-19T00:48:57.325Z,19.60
2019-01-19T00:51:28.864Z,23.07
2019-01-19T00:54:12.263Z,25.23
2019-01-19T00:56:55.846Z,20.60
2019-01-19T00:59:27.030Z,24.03
2019-01-19T01:02:19.572Z,23.13
2019-01-19T01:05:03.581Z,21.07
2019-01-19T01:07:58.990Z,23.30
2019-01-19T01:10:30.862Z,25.93
2019-01-19T01:13:11.073Z,28.90
2019-01-19T01:16:00.698Z,24.23
2019-01-19T01:18:32.247Z,28.70
2019-01-19T01:21:03.785Z,27.23
2019-01-19T01:23:47.347Z,29.03
2019-01-19T01:26:30.785Z,25.97
2019-01-19T01:29:21.642Z,31.60
2019-01-19T01:32:05.015Z,30.37
2019-01-19T01:34:55.660Z,29.43
2019-01-19T01:37:27.272Z,26.30
2019-01-19T01:40:07.601Z,30.97
2019-01-19T01:42:50.266Z,27.60
2019-01-19T01:45:24.795Z,28.13
2019-01-19T01:48:15.784Z,30.00
2019-01-19T01:50:50.298Z,33.63
2019-01-19T01:53:56.560Z,26.23
2019-01-19T01:56:24.915Z,32.07
2019-01-19T01:59:17.045Z,28.77
2019-01-19T02:02:00.296Z,28.50
2019-01-19T02:04:57.208Z,30.07
2019-01-19T02:07:28.869Z,31.43
2019-01-19T02:10:16.538Z,30.43
2019-01-19T02:12:48.190Z,32.80
2019-01-19T02:15:31.614Z,27.83
2019-01-19T02:18:05.846Z,32.27
2019-01-19T02:20:46.466Z,31.10
2019-01-19T02:23:20.725Z,31.37
2019-01-19T02:25:54.999Z,32.90
2019-01-19T02:28:29.434Z,31.17
2019-01-19T02:31:00.979Z,28.97
2019-01-19T02:34:02.096Z,34.17
2019-01-19T02:36:42.655Z,29.87
2019-01-19T02:39:23.053Z,30.37
2019-01-19T02:42:16.801Z,27.47
2019-01-19T02:44:54.113Z,32.80
2019-01-19T02:47:28.429Z,32.20
2019-01-19T02:50:02.652Z,32.47
2019-01-19T02:52:43.279Z,30.43
2019-01-19T02:55:20.385Z,31.20
2019-01-19T02:57:51.997Z,30.53
2019-01-19T03:00:38.775Z,32.23
2019-01-19T03:03:13.640Z,31.20
2019-01-19T03:05:45.184Z,30.57
2019-01-19T03:08:28.816Z,32.07
2019-01-19T03:11:15.594Z,29.73
2019-01-19T03:13:56.170Z,27.83
2019-01-19T03:16:36.658Z,32.40
2019-01-19T03:19:08.317Z,36.40
2019-01-19T03:21:45.980Z,36.50
2019-01-19T03:24:29.306Z,37.33
2019-01-19T03:27:03.725Z,28.77
2019-01-19T03:29:40.810Z,38.03
2019-01-19T03:32:39.595Z,34.40
2019-01-19T03:35:13.806Z,36.27
2019-01-19T03:37:45.393Z,31.87
2019-01-19T03:40:22.485Z,31.30
2019-01-19T03:43:22.318Z,30.13
2019-01-19T03:46:06.746Z,27.27
2019-01-19T03:49:02.342Z,27.67
2019-01-19T03:51:36.540Z,27.50
2019-01-19T03:54:13.439Z,32.30
2019-01-19T03:56:59.260Z,31.43
2019-01-19T03:59:45.963Z,32.60
2019-01-19T04:02:41.647Z,26.43
2019-01-19T04:05:27.835Z,29.53
2019-01-19T04:08:20.173Z,29.10
2019-01-19T04:11:06.083Z,35.53
2019-01-19T04:13:37.631Z,34.43
2019-01-19T04:16:25.845Z,33.23
2019-01-19T04:19:12.407Z,34.60
2019-01-19T04:21:44.303Z,30.00
2019-01-19T04:24:15.842Z,32.07
2019-01-19T04:26:44.631Z,30.10
2019-01-19T04:29:13.016Z,35.50
2019-01-19T04:31:41.298Z,32.90
2019-01-19T04:34:09.899Z,39.87
2019-01-19T04:36:38.663Z,36.13
2019-01-19T04:39:09.437Z,40.60
2019-01-19T04:41:37.735Z,36.93
2019-01-19T04:44:06.100Z,31.57
2019-01-19T04:46:34.396Z,32.97
2019-01-19T04:49:02.937Z,37.40
2019-01-19T04:51:31.304Z,38.77
2019-01-19T04:53:59.668Z,45.80
2019-01-19T04:56:27.942Z,33.63
2019-01-19T04:58:56.248Z,39.47
2019-01-19T05:01:24.540Z,33.17
2019-01-19T05:03:52.887Z,35.77
2019-01-19T05:06:21.218Z,39.00
2019-01-19T05:08:49.574Z,34.43
2019-01-19T05:11:17.918Z,35.13
2019-01-19T05:13:46.206Z,39.47
2019-01-19T05:16:14.599Z,33.83
2019-01-19T05:18:42.876Z,29.13
2019-01-19T05:21:11.218Z,28.37
2019-01-19T05:23:40.016Z,28.57
2019-01-19T05:26:08.367Z,30.27
2019-01-19T05:28:36.730Z,31.23
2019-01-19T05:31:05.100Z,27.47
2019-01-19T05:33:33.456Z,27.00
2019-01-19T05:36:01.847Z,25.60
2019-01-19T05:38:30.125Z,27.13
2019-01-19T05:40:58.478Z,32.67
2019-01-19T05:43:27.009Z,29.00
2019-01-19T05:45:55.270Z,33.50
2019-01-19T05:48:23.555Z,31.97
2019-01-19T05:50:51.873Z,28.50
2019-01-19T05:53:20.168Z,29.17
2019-01-19T05:55:48.514Z,26.37
2019-01-19T05:58:16.791Z,20.67
2019-01-19T06:00:45.062Z,30.27
2019-01-19T06:03:13.746Z,27.23
2019-01-19T06:05:42.776Z,28.70
2019-01-19T06:08:11.129Z,26.23
2019-01-19T06:10:39.438Z,32.43
2019-01-19T06:13:07.843Z,32.67
2019-01-19T06:15:36.263Z,31.77
2019-01-19T06:18:04.546Z,31.30
2019-01-19T06:20:33.363Z,33.60
2019-01-19T06:23:01.648Z,30.53
2019-01-19T06:25:30.455Z,29.93
2019-01-19T06:27:58.818Z,33.60
2019-01-19T06:30:27.113Z,34.77
2019-01-19T06:32:55.514Z,36.73
2019-01-19T06:35:23.812Z,28.97
2019-01-19T06:37:52.232Z,30.80
2019-01-19T06:40:20.754Z,34.13
2019-01-19T06:42:49.111Z,28.97
2019-01-19T06:45:22.838Z,32.70
2019-01-19T06:47:51.159Z,35.93
2019-01-19T06:50:19.518Z,36.60
2019-01-19T06:52:47.812Z,39.73
2019-01-19T06:55:18.803Z,34.73
2019-01-19T06:57:47.133Z,34.00
2019-01-19T07:00:17.423Z,35.23
2019-01-19T07:02:45.779Z,35.80
2019-01-19T07:05:14.086Z,30.50
2019-01-19T07:07:42.536Z,35.63
2019-01-19T07:10:16.493Z,37.20
2019-01-19T07:12:44.829Z,31.80
2019-01-19T07:15:13.827Z,32.53
2019-01-19T07:17:42.157Z,39.07
2019-01-19T07:20:13.363Z,33.30
2019-01-19T07:22:41.662Z,35.43
2019-01-19T07:25:10.012Z,28.00
2019-01-19T07:27:38.322Z,34.83
2019-01-19T07:30:15.166Z,32.03
2019-01-19T07:32:43.657Z,34.17
2019-01-19T07:35:13.764Z,38.17
2019-01-19T07:37:42.129Z,33.83
2019-01-19T07:40:15.498Z,36.33
2019-01-19T07:42:44.574Z,33.33
2019-01-19T07:45:14.968Z,33.90
2019-01-19T07:47:44.911Z,37.00
2019-01-19T07:50:15.447Z,34.07
2019-01-19T07:52:43.808Z,36.43
2019-01-19T07:55:17.821Z,42.50
2019-01-19T07:57:46.225Z,37.10
2019-01-19T08:00:21.898Z,39.67
2019-01-19T08:02:50.879Z,33.60
2019-01-19T08:05:19.225Z,38.63
2019-01-19T08:07:47.609Z,42.70
2019-01-19T08:10:18.854Z,38.10
2019-01-19T08:12:47.153Z,39.67
2019-01-19T08:15:21.530Z,43.10
2019-01-19T08:17:49.885Z,35.60
2019-01-19T08:20:18.176Z,31.57
2019-01-19T08:22:46.560Z,43.30
2019-01-19T08:25:14.838Z,34.83
2019-01-19T08:27:43.141Z,37.00
2019-01-19T08:30:23.322Z,39.47
2019-01-19T08:32:51.603Z,37.07
2019-01-19T08:35:20.150Z,37.80
2019-01-19T08:37:48.694Z,41.10
2019-01-19T08:40:19.675Z,40.03
2019-01-19T08:42:49.653Z,40.90
2019-01-19T08:45:18.585Z,36.87
2019-01-19T08:47:47.067Z,44.73
2019-01-19T08:50:15.534Z,41.70
2019-01-19T08:52:43.897Z,45.57
2019-01-19T08:55:12.292Z,48.13
2019-01-19T08:57:40.625Z,45.77
2019-01-19T09:00:17.539Z,38.17
2019-01-19T09:02:45.806Z,45.60
2019-01-19T09:05:14.095Z,44.43
2019-01-19T09:07:42.378Z,41.47
2019-01-19T09:10:15.638Z,49.97
2019-01-19T09:12:43.968Z,44.03
2019-01-19T09:15:21.911Z,40.00
2019-01-19T09:17:50.249Z,43.00
2019-01-19T09:20:18.539Z,41.70
2019-01-19T09:22:48.533Z,34.17
2019-01-19T09:25:17.178Z,40.03
2019-01-19T09:27:45.626Z,45.00
2019-01-19T09:30:19.479Z,43.63
2019-01-19T09:32:48.216Z,41.00
2019-01-19T09:35:16.840Z,39.60
2019-01-19T09:37:45.118Z,36.10
2019-01-19T09:40:16.761Z,42.37
2019-01-19T09:42:45.288Z,33.63
2019-01-19T09:45:18.325Z,39.03
2019-01-19T09:47:46.636Z,33.53
2019-01-19T09:50:16.346Z,38.50
2019-01-19T09:52:44.655Z,36.47
2019-01-19T09:55:12.999Z,34.13
2019-01-19T09:57:41.348Z,38.10
2019-01-19T10:00:12.913Z,33.67
2019-01-19T10:02:41.210Z,32.53
2019-01-19T10:05:12.864Z,31.37
2019-01-19T10:07:48.226Z,39.13
2019-01-19T10:10:12.879Z,38.70
2019-01-19T10:12:41.192Z,32.93
2019-01-19T10:15:14.853Z,37.30
2019-01-19T10:17:43.130Z,34.17
2019-01-19T10:20:14.353Z,29.80
2019-01-19T10:22:42.640Z,31.10
2019-01-19T10:25:13.697Z,28.77
2019-01-19T10:27:42.387Z,32.47
2019-01-19T10:30:26.147Z,32.60
2019-01-19T10:32:54.491Z,31.53
2019-01-19T10:35:22.776Z,31.17
2019-01-19T10:37:56.106Z,32.33
2019-01-19T10:40:21.251Z,31.77
2019-01-19T10:42:49.527Z,32.23
2019-01-19T10:45:25.810Z,34.70
2019-01-19T10:47:54.091Z,32.57
2019-01-19T10:50:22.370Z,22.07
2019-01-19T10:52:50.661Z,24.50
2019-01-19T10:55:23.268Z,34.33
2019-01-19T10:57:51.537Z,26.13
2019-01-19T11:00:23.295Z,22.70
2019-01-19T11:02:51.667Z,27.67
2019-01-19T11:05:19.953Z,30.00
2019-01-19T11:07:49.375Z,32.87
2019-01-19T11:10:29.073Z,29.53
2019-01-19T11:12:57.354Z,29.30
2019-01-19T11:15:25.711Z,29.00
2019-01-19T11:17:54.015Z,29.87
2019-01-19T11:20:27.762Z,26.07
2019-01-19T11:22:56.483Z,32.07
2019-01-19T11:25:24.829Z,27.77
2019-01-19T11:27:53.112Z,26.60
2019-01-19T11:30:27.149Z,23.83
2019-01-19T11:32:55.504Z,21.97
2019-01-19T11:35:23.844Z,21.10
2019-01-19T11:37:52.245Z,21.80
2019-01-19T11:40:26.284Z,24.03
2019-01-19T11:42:54.593Z,21.03
2019-01-19T11:45:23.871Z,20.40
2019-01-19T11:47:52.199Z,17.23
2019-01-19T11:50:20.468Z,19.23
2019-01-19T11:52:48.749Z,20.73
2019-01-19T11:55:19.595Z,19.80
2019-01-19T11:57:50.385Z,16.63
2019-01-19T12:00:21.268Z,23.63
2019-01-19T12:02:49.614Z,20.93
2019-01-19T12:05:17.998Z,17.87
2019-01-19T12:07:46.340Z,18.40
2019-01-19T12:10:20.654Z,19.57
2019-01-19T12:12:48.945Z,20.70
2019-01-19T12:15:17.320Z,14.97
2019-01-19T12:17:45.673Z,14.37
2019-01-19T12:20:25.692Z,16.80
2019-01-19T12:22:54.048Z,20.43
2019-01-19T12:25:24.359Z,16.97
2019-01-19T12:27:52.653Z,21.17
2019-01-19T12:30:26.291Z,15.60
2019-01-19T12:32:54.557Z,13.83
2019-01-19T12:35:22.834Z,14.00
2019-01-19T12:37:51.215Z,14.67
2019-01-19T12:40:22.012Z,14.93
2019-01-19T12:42:52.531Z,17.13
2019-01-19T12:45:24.066Z,17.63
2019-01-19T12:47:52.326Z,24.37
2019-01-19T12:50:23.143Z,20.30
2019-01-19T12:52:53.099Z,19.47
2019-01-19T12:55:40.908Z,20.23
2019-01-19T12:58:10.441Z,15.87
2019-01-19T13:00:38.710Z,24.97
2019-01-19T13:03:08.131Z,16.33
2019-01-19T13:05:39.644Z,18.03
2019-01-19T13:08:14.404Z,16.63
2019-01-19T13:10:48.499Z,22.20
2019-01-19T13:13:16.990Z,22.53
2019-01-19T13:15:49.069Z,19.93
2019-01-19T13:18:35.676Z,25.37
2019-01-19T13:21:25.474Z,14.67
2019-01-19T13:24:05.942Z,21.73
2019-01-19T13:26:58.724Z,18.83
2019-01-19T13:29:45.058Z,22.80
2019-01-19T13:32:31.868Z,14.17
2019-01-19T13:35:14.993Z,15.80
2019-01-19T13:37:52.597Z,18.87
2019-01-19T13:40:26.938Z,15.77
2019-01-19T13:43:17.984Z,16.80
2019-01-19T13:45:54.558Z,13.20
2019-01-19T13:48:26.123Z,18.17
2019-01-19T13:51:06.674Z,16.03
2019-01-19T13:53:55.123Z,13.60
2019-01-19T13:56:40.722Z,19.27
2019-01-19T13:59:30.198Z,17.03
2019-01-19T14:02:19.407Z,22.63
2019-01-19T14:04:57.022Z,18.77
2019-01-19T14:07:42.975Z,20.43
2019-01-19T14:10:14.497Z,16.00
2019-01-19T14:13:00.808Z,21.10
2019-01-19T14:15:35.215Z,20.07
2019-01-19T14:18:21.481Z,22.73
2019-01-19T14:21:23.303Z,27.40
2019-01-19T14:23:55.279Z,34.13
2019-01-19T14:26:29.698Z,40.80
2019-01-19T14:29:13.066Z,37.83
2019-01-19T14:32:11.653Z,46.63
2019-01-19T14:34:59.500Z,33.10
2019-01-19T14:37:45.957Z,33.43
2019-01-19T14:40:34.358Z,34.90
2019-01-19T14:43:22.495Z,40.90
2019-01-19T14:45:57.025Z,41.87
2019-01-19T14:48:57.387Z,31.83
2019-01-19T14:51:46.930Z,37.33
2019-01-19T14:54:24.371Z,32.43
2019-01-19T14:57:07.670Z,33.70
2019-01-19T14:59:56.247Z,31.13
2019-01-19T15:02:42.506Z,27.23
2019-01-19T15:05:23.216Z,24.50
2019-01-19T15:08:00.494Z,24.83
2019-01-19T15:10:43.854Z,36.57
2019-01-19T15:13:20.975Z,27.83
2019-01-19T15:15:58.168Z,29.57
2019-01-19T15:18:35.702Z,26.93
2019-01-19T15:21:09.911Z,30.20
2019-01-19T15:23:41.468Z,38.77
2019-01-19T15:26:18.512Z,27.63
2019-01-19T15:28:55.762Z,49.83
2019-01-19T15:31:45.423Z,34.33
2019-01-19T15:34:43.754Z,45.47
2019-01-19T15:37:26.793Z,78.03
2019-01-19T15:40:07.026Z,39.73
2019-01-19T15:42:59.235Z,38.73
2019-01-19T15:45:49.863Z,48.33
2019-01-19T15:48:39.282Z,45.40
2019-01-19T15:51:28.428Z,49.63
2019-01-19T15:54:00.231Z,46.67
2019-01-19T15:56:55.501Z,45.40
2019-01-19T15:59:45.333Z,48.70
2019-01-19T16:02:32.103Z,41.73
2019-01-19T16:05:03.654Z,46.83
2019-01-19T16:07:56.351Z,46.00
2019-01-19T16:10:39.595Z,58.07
2019-01-19T16:13:13.925Z,53.57
2019-01-19T16:15:45.548Z,59.03
2019-01-19T16:18:28.852Z,64.67
2019-01-19T16:21:16.894Z,68.67
2019-01-19T16:24:03.085Z,58.23
2019-01-19T16:26:40.514Z,48.00
2019-01-19T16:29:26.984Z,45.83
2019-01-19T16:32:07.776Z,44.87
2019-01-19T16:35:01.997Z,43.17
2019-01-19T16:37:51.832Z,43.53
2019-01-19T16:40:31.814Z,50.63
2019-01-19T16:43:08.919Z,51.10
2019-01-19T16:45:46.171Z,55.73
2019-01-19T16:48:44.535Z,52.23
2019-01-19T16:51:28.089Z,58.30
2019-01-19T16:54:00.367Z,75.83
2019-01-19T16:56:40.825Z,78.67
2019-01-19T16:59:30.365Z,90.60
2019-01-19T17:02:38.809Z,99.10
2019-01-19T17:05:26.206Z,96.93
2019-01-19T17:10:57.260Z,114.10
2019-01-19T17:13:31.593Z,121.10
2019-01-19T17:16:14.651Z,142.07
2019-01-19T17:18:49.163Z,135.10
2019-01-19T17:21:49.795Z,125.53
2019-01-19T17:24:33.604Z,140.20
2019-01-19T17:27:08.057Z,140.60
2019-01-19T17:29:45.778Z,123.87
2019-01-19T17:32:17.419Z,122.73
2019-01-19T17:34:51.807Z,115.47
2019-01-19T17:37:26.397Z,127.63
2019-01-19T17:39:58.008Z,120.27
2019-01-19T17:42:32.435Z,132.40
2019-01-19T17:45:10.088Z,135.90
2019-01-19T17:48:05.451Z,130.27
2019-01-19T17:51:06.741Z,134.07
2019-01-19T17:54:30.770Z,119.00
2019-01-19T17:57:08.215Z,125.70
2019-01-19T17:59:54.331Z,121.13
2019-01-19T18:02:35.029Z,116.93
2019-01-19T18:05:12.420Z,114.10
2019-01-19T18:07:49.918Z,133.83
2019-01-19T18:10:30.229Z,145.57
2019-01-19T18:13:25.911Z,133.77
2019-01-19T18:16:12.122Z,123.80
2019-01-19T18:18:43.706Z,105.83
2019-01-19T18:21:48.392Z,97.27
2019-01-19T18:24:46.864Z,118.47
2019-01-19T18:27:36.389Z,123.37
2019-01-19T18:30:22.672Z,117.73
2019-01-19T18:32:57.453Z,113.67
2019-01-19T18:35:40.480Z,108.90
2019-01-19T18:38:23.844Z,99.80
2019-01-19T18:40:55.530Z,104.47
2019-01-19T18:43:47.807Z,95.80
2019-01-19T18:46:28.316Z,106.27
2019-01-19T18:49:08.421Z,108.90
2019-01-19T18:52:02.803Z,96.30
2019-01-19T18:54:43.510Z,136.17
2019-01-19T18:57:23.760Z,117.70
2019-01-19T19:00:01.095Z,102.57
2019-01-19T19:02:35.402Z,94.93
2019-01-19T19:05:26.385Z,117.50
2019-01-19T19:08:00.795Z,149.23
2019-01-19T19:10:54.808Z,151.60
2019-01-19T19:13:44.053Z,215.03
2019-01-19T19:16:18.920Z,196.90
2019-01-19T19:18:55.987Z,178.17
2019-01-19T19:21:36.202Z,174.10
2019-01-19T19:24:33.096Z,162.50
2019-01-19T19:27:19.384Z,169.97
2019-01-19T19:29:59.753Z,155.57
2019-01-19T19:32:43.320Z,164.60
2019-01-19T19:35:18.017Z,150.90
2019-01-19T19:37:49.591Z,135.20
2019-01-19T19:40:49.902Z,144.60
2019-01-19T19:43:27.382Z,158.47
2019-01-19T19:45:58.948Z,200.53
2019-01-19T19:48:36.199Z,245.40
2019-01-19T19:51:28.556Z,142.67
2019-01-19T19:53:56.845Z,121.47
2019-01-19T19:56:24.314Z,114.70
2019-01-19T19:58:52.603Z,126.87
2019-01-19T20:01:20.958Z,125.90
2019-01-19T20:03:49.258Z,127.20
2019-01-19T20:06:17.993Z,129.10
2019-01-19T20:08:46.333Z,116.90
2019-01-19T20:11:14.628Z,122.53
2019-01-19T20:13:42.997Z,127.53
2019-01-19T20:19:41.098Z,193.00
2019-01-19T20:22:09.374Z,196.37
2019-01-19T20:24:37.666Z,199.10
2019-01-19T20:27:06.039Z,198.27
2019-01-19T20:29:34.324Z,171.77
2019-01-19T20:32:03.083Z,159.97
2019-01-19T20:34:31.375Z,165.37
2019-01-19T20:36:59.739Z,158.20
2019-01-19T20:39:28.123Z,161.93
2019-01-19T20:41:56.485Z,189.57
2019-01-19T20:44:24.832Z,188.50
2019-01-19T20:46:53.155Z,213.33
2019-01-19T20:49:21.506Z,196.63
2019-01-19T20:51:49.793Z,192.47
2019-01-19T20:54:18.165Z,183.93
2019-01-19T20:56:46.590Z,202.10
2019-01-19T20:59:14.871Z,218.47
2019-01-19T21:01:43.197Z,238.73
2019-01-19T21:04:15.714Z,221.57
2019-01-19T21:06:41.503Z,222.40
2019-01-19T21:09:11.163Z,224.13
2019-01-19T21:11:39.541Z,212.20
2019-01-19T21:14:07.824Z,205.63
2019-01-19T21:16:36.182Z,195.53
2019-01-19T21:19:04.724Z,196.40
2019-01-19T21:21:33.061Z,195.80
2019-01-19T21:24:01.918Z,159.20
2019-01-19T21:26:30.284Z,159.97
2019-01-19T21:28:58.591Z,174.50
2019-01-19T21:31:26.879Z,172.40
2019-01-19T21:33:55.163Z,181.63
2019-01-19T21:36:23.526Z,193.47
2019-01-19T21:38:51.870Z,191.83
2019-01-19T21:41:20.155Z,189.70
2019-01-19T21:43:48.451Z,193.20
2019-01-19T21:46:16.805Z,181.90
2019-01-19T21:48:45.087Z,177.73
2019-01-19T21:51:13.367Z,204.27
2019-01-19T21:53:41.926Z,195.77
2019-01-19T21:56:10.256Z,225.03
2019-01-19T21:58:38.543Z,227.23
2019-01-19T22:01:06.928Z,220.20
2019-01-19T22:03:35.287Z,227.57
2019-01-19T22:06:03.597Z,232.50
2019-01-19T22:08:31.964Z,253.77
2019-01-19T22:11:00.331Z,294.77
2019-01-19T22:13:28.716Z,231.20
2019-01-19T22:15:57.346Z,221.87
2019-01-19T22:18:25.638Z,208.10
2019-01-19T22:20:53.931Z,209.83
2019-01-19T22:23:22.235Z,208.73
2019-01-19T22:25:50.705Z,200.73
2019-01-19T22:28:18.999Z,193.90
2019-01-19T22:30:47.320Z,188.13
2019-01-19T22:33:16.440Z,194.33
2019-01-19T22:35:44.772Z,194.73
2019-01-19T22:38:13.130Z,199.53
2019-01-19T22:40:41.487Z,190.40
2019-01-19T22:43:09.772Z,187.87
2019-01-19T22:45:38.095Z,187.73
2019-01-19T22:48:06.410Z,186.10
2019-01-19T22:50:34.691Z,193.40
2019-01-19T22:53:02.988Z,181.27
2019-01-19T22:55:31.367Z,180.03
2019-01-19T22:57:59.878Z,186.83
2019-01-19T23:00:58.288Z,197.13
2019-01-19T23:03:27.868Z,189.30
2019-01-19T23:05:56.151Z,198.73
2019-01-19T23:08:24.475Z,202.10
2019-01-19T23:10:52.759Z,207.67
2019-01-19T23:13:21.120Z,199.13
2019-01-19T23:15:49.417Z,199.17
2019-01-19T23:18:17.769Z,204.27
2019-01-19T23:20:46.085Z,195.07
2019-01-19T23:23:14.365Z,233.77
2019-01-19T23:25:42.903Z,242.00
2019-01-19T23:28:11.295Z,243.03
2019-01-19T23:30:39.570Z,231.87
2019-01-19T23:33:07.845Z,260.13
2019-01-19T23:35:36.163Z,258.50
2019-01-19T23:38:04.447Z,227.87
2019-01-19T23:40:32.713Z,217.17
2019-01-19T23:43:01.003Z,216.73
2019-01-19T23:45:29.296Z,238.03
2019-01-19T23:47:57.678Z,252.30
2019-01-19T23:50:25.968Z,255.00
2019-01-19T23:52:54.256Z,267.30
2019-01-19T23:55:22.592Z,295.03
2019-01-19T23:57:51.335Z,304.67
